Terminal Aerodrome Forecast
Issued by NWS

Home | Current Version | Previous Version | Text Only | Print | Product List | Glossary On
Versions: 1 2 3 4 5 6 7 8 9 10 11 12 13 14 15
000
FTUS41 KCAR 241727
TAFFVE
TAF
KFVE 241727Z 2418/2518 26008KT P6SM SCT070
     FM250100 26006KT P6SM VCSH OVC050
     FM251600 28008KT P6SM VCTS OVC035CB=

USA.gov is the U.S. government's official web portal to all federal, state and local government web resources and services.